Impacts TAF Board
For situational awareness. Not to be used for flight planning purposes.
IDs:

KPDX - Portland Intl Arpt, OR, US

Issued at 2320 UTC 18 Dec 2018
Updated at 2331 UTC 18 Dec 2018
Potential Impact None Slight Moderate High
Time<<20/00Z 20/01Z 20/02Z 20/03Z 20/04Z 20/05Z 20/06Z 20/07Z 20/08Z 20/09Z 20/10Z 20/11Z 20/12Z
Type
VIS
CIG
Cover
FltCat
WX
WDir
WSpd
WGst
Raw TAF
KPDX 182320Z 1900/1924 24015G22KT P6SM -SHRA FEW050 BKN080
  FM190200 24008KT P6SM VCSH SCT120
  FM191500 15004KT P6SM BKN050


METAR Board
Radar Display
Forecast Discussion
For situational awareness. Not to be used for flight planning purposes.